sensor_id;sensor_type;location;lat;lon;timestamp;pressure;altitude;pressure_sealevel;temperature;humidity
12963;BME280;6546;49.882;8.666;2022-12-07T00:01:22;100016.03;;;4.93;100.00
12963;BME280;6546;49.882;8.666;2022-12-07T00:03:50;100016.09;;;4.96;100.00
12963;BME280;6546;49.882;8.666;2022-12-07T00:06:18;100016.03;;;4.93;100.00
12963;BME280;6546;49.882;8.666;2022-12-07T00:08:46;100017.75;;;4.94;100.00
12963;BME280;6546;49.882;8.666;2022-12-07T00:11:15;100011.69;;;4.92;100.00
12963;BME280;6546;49.882;8.666;2022-12-07T00:13:42;100004.94;;;4.94;100.00
12963;BME280;6546;49.882;8.666;2022-12-07T00:16:12;100009.13;;;4.92;100.00
12963;BME280;6546;49.882;8.666;2022-12-07T00:18:40;100006.66;;;4.95;100.00
12963;BME280;6546;49.882;8.666;2022-12-07T00:21:09;100011.06;;;4.99;100.00
12963;BME280;6546;49.882;8.666;2022-12-07T00:23:36;99997.41;;;5.00;100.00
12963;BME280;6546;49.882;8.666;2022-12-07T00:26:04;99998.25;;;5.01;100.00
12963;BME280;6546;49.882;8.666;2022-12-07T00:28:31;100007.66;;;5.00;100.00
12963;BME280;6546;49.882;8.666;2022-12-07T00:31:01;100005.28;;;5.07;100.00
12963;BME280;6546;49.882;8.666;2022-12-07T00:33:29;99995.75;;;5.03;100.00
12963;BME280;6546;49.882;8.666;2022-12-07T00:35:56;99996.63;;;5.03;100.00
12963;BME280;6546;49.882;8.666;2022-12-07T00:38:23;99992.44;;;5.07;100.00
12963;BME280;6546;49.882;8.666;2022-12-07T00:40:54;99988.97;;;5.05;100.00
12963;BME280;6546;49.882;8.666;2022-12-07T00:43:21;99987.19;;;5.02;100.00
12963;BME280;6546;49.882;8.666;2022-12-07T00:45:47;99992.34;;;5.04;100.00
12963;BME280;6546;49.882;8.666;2022-12-07T00:48:14;99983.03;;;5.06;100.00
12963;BME280;6546;49.882;8.666;2022-12-07T00:50:42;99976.88;;;5.00;100.00
12963;BME280;6546;49.882;8.666;2022-12-07T00:53:08;99970.97;;;5.03;100.00
12963;BME280;6546;49.882;8.666;2022-12-07T00:55:36;99971.72;;;4.97;100.00
12963;BME280;6546;49.882;8.666;2022-12-07T00:58:02;99970.78;;;4.95;100.00
12963;BME280;6546;49.882;8.666;2022-12-07T01:00:29;99969.94;;;4.96;100.00
12963;BME280;6546;49.882;8.666;2022-12-07T01:02:56;99975.81;;;4.92;100.00
12963;BME280;6546;49.882;8.666;2022-12-07T01:05:23;99961.28;;;4.91;100.00
12963;BME280;6546;49.882;8.666;2022-12-07T01:07:51;99956.94;;;4.89;100.00
12963;BME280;6546;49.882;8.666;2022-12-07T01:10:18;99956.06;;;4.88;100.00
12963;BME280;6546;49.882;8.666;2022-12-07T01:12:44;99956.16;;;4.91;100.00
12963;BME280;6546;49.882;8.666;2022-12-07T01:15:11;99952.72;;;4.91;100.00
12963;BME280;6546;49.882;8.666;2022-12-07T01:17:38;99957.88;;;4.92;100.00
12963;BME280;6546;49.882;8.666;2022-12-07T01:20:05;99959.47;;;4.87;100.00
12963;BME280;6546;49.882;8.666;2022-12-07T01:22:36;99969.88;;;4.93;100.00
12963;BME280;6546;49.882;8.666;2022-12-07T01:25:05;99963.81;;;4.90;100.00
12963;BME280;6546;49.882;8.666;2022-12-07T01:27:32;99963.00;;;4.92;100.00
12963;BME280;6546;49.882;8.666;2022-12-07T01:29:59;99956.88;;;4.86;100.00
12963;BME280;6546;49.882;8.666;2022-12-07T01:32:26;99961.13;;;4.85;100.00
12963;BME280;6546;49.882;8.666;2022-12-07T01:34:53;99968.88;;;4.88;100.00
12963;BME280;6546;49.882;8.666;2022-12-07T01:37:20;99973.09;;;4.86;100.00
12963;BME280;6546;49.882;8.666;2022-12-07T01:39:48;99977.38;;;4.86;100.00
12963;BME280;6546;49.882;8.666;2022-12-07T01:42:18;99979.97;;;4.87;100.00
12963;BME280;6546;49.882;8.666;2022-12-07T01:45:31;99967.88;;;4.83;100.00
12963;BME280;6546;49.882;8.666;2022-12-07T01:48:03;99974.63;;;4.80;100.00
12963;BME280;6546;49.882;8.666;2022-12-07T01:50:31;99974.59;;;4.78;100.00
12963;BME280;6546;49.882;8.666;2022-12-07T01:52:59;99974.59;;;4.78;100.00
12963;BME280;6546;49.882;8.666;2022-12-07T01:55:29;99972.88;;;4.77;100.00
12963;BME280;6546;49.882;8.666;2022-12-07T01:57:57;99977.03;;;4.73;100.00
12963;BME280;6546;49.882;8.666;2022-12-07T02:00:24;99970.25;;;4.75;100.00
12963;BME280;6546;49.882;8.666;2022-12-07T02:02:53;99973.59;;;4.73;100.00
12963;BME280;6546;49.882;8.666;2022-12-07T02:05:22;99965.91;;;4.73;100.00
12963;BME280;6546;49.882;8.666;2022-12-07T02:07:51;99957.50;;;4.77;100.00
12963;BME280;6546;49.882;8.666;2022-12-07T02:10:21;99960.09;;;4.79;100.00
12963;BME280;6546;49.882;8.666;2022-12-07T02:12:51;99957.53;;;4.80;100.00
12963;BME280;6546;49.882;8.666;2022-12-07T02:15:26;99956.78;;;4.83;100.00
12963;BME280;6546;49.882;8.666;2022-12-07T02:18:01;99947.31;;;4.80;100.00
12963;BME280;6546;49.882;8.666;2022-12-07T02:20:38;99937.97;;;4.82;100.00
12963;BME280;6546;49.882;8.666;2022-12-07T02:23:30;99935.31;;;4.79;100.00
12963;BME280;6546;49.882;8.666;2022-12-07T02:26:25;99937.03;;;4.79;100.00
12963;BME280;6546;49.882;8.666;2022-12-07T02:29:11;99934.53;;;4.82;100.00
12963;BME280;6546;49.882;8.666;2022-12-07T02:31:44;99931.91;;;4.80;100.00
12963;BME280;6546;49.882;8.666;2022-12-07T02:34:20;99929.41;;;4.82;100.00
12963;BME280;6546;49.882;8.666;2022-12-07T02:36:53;99936.31;;;4.84;100.00
12963;BME280;6546;49.882;8.666;2022-12-07T02:39:26;99931.22;;;4.86;100.00
12963;BME280;6546;49.882;8.666;2022-12-07T02:41:58;99932.88;;;4.84;100.00
12963;BME280;6546;49.882;8.666;2022-12-07T02:44:31;99926.88;;;4.83;100.00
12963;BME280;6546;49.882;8.666;2022-12-07T02:47:02;99921.66;;;4.80;100.00
12963;BME280;6546;49.882;8.666;2022-12-07T02:49:31;99920.81;;;4.80;100.00
12963;BME280;6546;49.882;8.666;2022-12-07T02:51:58;99923.44;;;4.81;100.00
12963;BME280;6546;49.882;8.666;2022-12-07T02:54:28;99921.84;;;4.86;100.00
12963;BME280;6546;49.882;8.666;2022-12-07T02:57:00;99924.38;;;4.85;100.00
12963;BME280;6546;49.882;8.666;2022-12-07T02:59:44;99915.03;;;4.88;100.00
12963;BME280;6546;49.882;8.666;2022-12-07T03:02:21;99909.03;;;4.86;100.00
12963;BME280;6546;49.882;8.666;2022-12-07T03:04:59;99921.66;;;4.80;100.00
12963;BME280;6546;49.882;8.666;2022-12-07T03:07:34;99915.66;;;4.78;100.00
12963;BME280;6546;49.882;8.666;2022-12-07T03:10:09;99915.69;;;4.80;100.00
12963;BME280;6546;49.882;8.666;2022-12-07T03:12:45;99913.94;;;4.79;100.00
12963;BME280;6546;49.882;8.666;2022-12-07T03:15:23;99913.00;;;4.75;100.00
12963;BME280;6546;49.882;8.666;2022-12-07T03:17:56;99909.59;;;4.76;100.00
12963;BME280;6546;49.882;8.666;2022-12-07T03:20:25;99913.09;;;4.78;100.00
12963;BME280;6546;49.882;8.666;2022-12-07T03:22:53;99911.59;;;4.86;100.00
12963;BME280;6546;49.882;8.666;2022-12-07T03:25:21;99912.25;;;4.79;100.00
12963;BME280;6546;49.882;8.666;2022-12-07T03:27:53;99917.34;;;4.78;100.00
12963;BME280;6546;49.882;8.666;2022-12-07T03:30:28;99923.44;;;4.81;100.00
12963;BME280;6546;49.882;8.666;2022-12-07T03:32:59;99926.84;;;4.82;100.00
12963;BME280;6546;49.882;8.666;2022-12-07T03:35:33;99926.84;;;4.82;100.00
12963;BME280;6546;49.882;8.666;2022-12-07T03:38:08;99913.97;;;4.80;100.00
12963;BME280;6546;49.882;8.666;2022-12-07T03:40:43;99913.09;;;4.78;100.00
12963;BME280;6546;49.882;8.666;2022-12-07T03:43:11;99922.72;;;4.87;100.00
12963;BME280;6546;49.882;8.666;2022-12-07T03:45:43;99909.88;;;4.85;100.00
12963;BME280;6546;49.882;8.666;2022-12-07T03:48:22;99902.97;;;4.84;100.00
12963;BME280;6546;49.882;8.666;2022-12-07T03:50:55;99915.03;;;4.88;100.00
12963;BME280;6546;49.882;8.666;2022-12-07T03:53:32;99907.97;;;4.78;100.00
12963;BME280;6546;49.882;8.666;2022-12-07T03:56:01;99892.59;;;4.78;100.00
12963;BME280;6546;49.882;8.666;2022-12-07T03:58:29;99905.44;;;4.80;100.00
12963;BME280;6546;49.882;8.666;2022-12-07T04:00:59;99896.78;;;4.76;100.00
12963;BME280;6546;49.882;8.666;2022-12-07T04:03:26;99907.88;;;4.75;100.00
12963;BME280;6546;49.882;8.666;2022-12-07T04:05:53;99892.44;;;4.72;100.00
12963;BME280;6546;49.882;8.666;2022-12-07T04:08:20;99895.06;;;4.75;100.00
12963;BME280;6546;49.882;8.666;2022-12-07T04:10:47;99909.69;;;4.79;100.00
12963;BME280;6546;49.882;8.666;2022-12-07T04:13:14;99902.06;;;4.81;100.00
12963;BME280;6546;49.882;8.666;2022-12-07T04:15:41;99902.84;;;4.78;100.00
12963;BME280;6546;49.882;8.666;2022-12-07T04:18:10;99894.16;;;4.73;100.00
12963;BME280;6546;49.882;8.666;2022-12-07T04:20:36;99899.34;;;4.76;100.00
12963;BME280;6546;49.882;8.666;2022-12-07T04:23:04;99898.50;;;4.75;100.00
12963;BME280;6546;49.882;8.666;2022-12-07T04:25:31;99897.63;;;4.75;100.00
12963;BME280;6546;49.882;8.666;2022-12-07T04:27:59;99896.88;;;4.79;100.00
12963;BME280;6546;49.882;8.666;2022-12-07T04:30:25;99899.34;;;4.76;100.00
12963;BME280;6546;49.882;8.666;2022-12-07T04:32:52;99892.44;;;4.72;100.00
12963;BME280;6546;49.882;8.666;2022-12-07T04:35:20;99896.78;;;4.76;100.00
12963;BME280;6546;49.882;8.666;2022-12-07T04:37:47;99890.00;;;4.77;100.00
12963;BME280;6546;49.882;8.666;2022-12-07T04:40:15;99897.63;;;4.75;100.00
12963;BME280;6546;49.882;8.666;2022-12-07T04:42:42;99896.75;;;4.74;100.00
12963;BME280;6546;49.882;8.666;2022-12-07T04:45:09;99898.47;;;4.74;100.00
12963;BME280;6546;49.882;8.666;2022-12-07T04:47:36;99888.25;;;4.75;100.00
12963;BME280;6546;49.882;8.666;2022-12-07T04:50:04;99896.88;;;4.79;100.00
12963;BME280;6546;49.882;8.666;2022-12-07T04:52:33;99896.84;;;4.78;100.00
12963;BME280;6546;49.882;8.666;2022-12-07T04:55:01;99899.31;;;4.74;100.00
12963;BME280;6546;49.882;8.666;2022-12-07T04:57:28;99896.75;;;4.74;100.00
12963;BME280;6546;49.882;8.666;2022-12-07T04:59:55;99890.78;;;4.74;100.00
12963;BME280;6546;49.882;8.666;2022-12-07T05:02:22;99890.00;;;4.77;100.00
12963;BME280;6546;49.882;8.666;2022-12-07T05:04:49;99884.94;;;4.80;100.00
12963;BME280;6546;49.882;8.666;2022-12-07T05:07:16;99884.13;;;4.81;100.00
12963;BME280;6546;49.882;8.666;2022-12-07T05:09:44;99883.22;;;4.80;100.00
12963;BME280;6546;49.882;8.666;2022-12-07T05:12:11;99891.00;;;4.83;100.00
12963;BME280;6546;49.882;8.666;2022-12-07T05:14:38;99894.50;;;4.85;100.00
12963;BME280;6546;49.882;8.666;2022-12-07T05:17:05;99883.16;;;4.77;100.00
12963;BME280;6546;49.882;8.666;2022-12-07T05:19:31;99883.91;;;4.73;100.00
12963;BME280;6546;49.882;8.666;2022-12-07T05:21:59;99888.22;;;4.74;100.00
12963;BME280;6546;49.882;8.666;2022-12-07T05:24:26;99891.81;;;4.81;100.00
12963;BME280;6546;49.882;8.666;2022-12-07T05:26:55;99888.41;;;4.82;100.00
12963;BME280;6546;49.882;8.666;2022-12-07T05:29:22;99888.34;;;4.80;100.00
12963;BME280;6546;49.882;8.666;2022-12-07T05:31:49;99887.66;;;4.86;100.00
12963;BME280;6546;49.882;8.666;2022-12-07T05:34:15;99881.47;;;4.78;100.00
12963;BME280;6546;49.882;8.666;2022-12-07T05:36:42;99886.63;;;4.79;100.00
12963;BME280;6546;49.882;8.666;2022-12-07T05:39:10;99885.78;;;4.80;100.00
12963;BME280;6546;49.882;8.666;2022-12-07T05:41:37;99882.25;;;4.75;100.00
12963;BME280;6546;49.882;8.666;2022-12-07T05:44:23;99890.84;;;4.77;100.00
12963;BME280;6546;49.882;8.666;2022-12-07T05:46:50;99889.28;;;4.82;100.00
12963;BME280;6546;49.882;8.666;2022-12-07T05:49:17;99886.75;;;4.84;100.00
12963;BME280;6546;49.882;8.666;2022-12-07T05:51:44;99877.34;;;4.84;100.00
12963;BME280;6546;49.882;8.666;2022-12-07T05:54:12;99886.72;;;4.82;100.00
12963;BME280;6546;49.882;8.666;2022-12-07T05:56:38;99884.28;;;4.88;100.00
12963;BME280;6546;49.882;8.666;2022-12-07T05:59:05;99885.09;;;4.86;100.00
12963;BME280;6546;49.882;8.666;2022-12-07T06:01:53;99885.94;;;4.85;100.00
12963;BME280;6546;49.882;8.666;2022-12-07T06:04:22;99885.88;;;4.83;100.00
12963;BME280;6546;49.882;8.666;2022-12-07T06:06:49;99886.75;;;4.84;100.00
12963;BME280;6546;49.882;8.666;2022-12-07T06:09:16;99878.06;;;4.79;100.00
12963;BME280;6546;49.882;8.666;2022-12-07T06:11:44;99873.78;;;4.78;100.00
12963;BME280;6546;49.882;8.666;2022-12-07T06:14:29;99872.13;;;4.80;100.00
12963;BME280;6546;49.882;8.666;2022-12-07T06:16:58;99872.09;;;4.78;100.00
12963;BME280;6546;49.882;8.666;2022-12-07T06:19:25;99878.81;;;4.73;100.00
12963;BME280;6546;49.882;8.666;2022-12-07T06:21:53;99876.22;;;4.73;100.00
12963;BME280;6546;49.882;8.666;2022-12-07T06:24:21;99876.34;;;4.78;100.00
12963;BME280;6546;49.882;8.666;2022-12-07T06:26:48;99880.75;;;4.83;100.00
12963;BME280;6546;49.882;8.666;2022-12-07T06:29:16;99879.03;;;4.82;100.00
12963;BME280;6546;49.882;8.666;2022-12-07T06:31:44;99878.19;;;4.83;100.00
12963;BME280;6546;49.882;8.666;2022-12-07T06:34:16;99874.72;;;4.81;100.00
12963;BME280;6546;49.882;8.666;2022-12-07T06:36:44;99886.00;;;4.88;100.00
12963;BME280;6546;49.882;8.666;2022-12-07T06:39:16;99890.31;;;4.89;100.00
12963;BME280;6546;49.882;8.666;2022-12-07T06:41:44;99891.22;;;4.92;100.00
12963;BME280;6546;49.882;8.666;2022-12-07T06:44:11;99894.53;;;4.88;100.00
12963;BME280;6546;49.882;8.666;2022-12-07T06:46:41;99888.50;;;4.85;100.00
12963;BME280;6546;49.882;8.666;2022-12-07T06:49:08;99894.63;;;4.91;100.00
12963;BME280;6546;49.882;8.666;2022-12-07T06:51:36;99892.81;;;4.87;100.00
12963;BME280;6546;49.882;8.666;2022-12-07T06:54:06;99890.16;;;4.84;100.00
12963;BME280;6546;49.882;8.666;2022-12-07T06:56:33;99887.69;;;4.87;100.00
12963;BME280;6546;49.882;8.666;2022-12-07T06:59:00;99890.22;;;4.86;100.00
12963;BME280;6546;49.882;8.666;2022-12-07T07:01:28;99891.94;;;4.87;100.00
12963;BME280;6546;49.882;8.666;2022-12-07T07:03:56;99892.09;;;4.93;100.00
12963;BME280;6546;49.882;8.666;2022-12-07T07:06:24;99891.97;;;4.88;100.00
12963;BME280;6546;49.882;8.666;2022-12-07T07:08:54;99896.22;;;4.86;100.00
12963;BME280;6546;49.882;8.666;2022-12-07T07:11:22;99892.16;;;4.94;100.00
12963;BME280;6546;49.882;8.666;2022-12-07T07:13:49;99904.78;;;4.88;100.00
12963;BME280;6546;49.882;8.666;2022-12-07T07:16:16;99900.72;;;4.95;100.00
12963;BME280;6546;49.882;8.666;2022-12-07T07:18:43;99910.88;;;4.92;100.00
12963;BME280;6546;49.882;8.666;2022-12-07T07:21:10;99908.28;;;4.90;100.00
12963;BME280;6546;49.882;8.666;2022-12-07T07:23:37;99911.69;;;4.89;100.00
12963;BME280;6546;49.882;8.666;2022-12-07T07:26:05;99901.59;;;4.97;100.00
12963;BME280;6546;49.882;8.666;2022-12-07T07:28:33;99903.28;;;4.96;100.00
12963;BME280;6546;49.882;8.666;2022-12-07T07:31:00;99908.41;;;4.96;100.00
12963;BME280;6546;49.882;8.666;2022-12-07T07:33:27;99907.66;;;4.99;100.00
12963;BME280;6546;49.882;8.666;2022-12-07T07:35:54;99900.84;;;5.01;100.00
12963;BME280;6546;49.882;8.666;2022-12-07T07:38:21;99918.69;;;4.96;100.00
12963;BME280;6546;49.882;8.666;2022-12-07T07:40:48;99914.34;;;4.94;100.00
12963;BME280;6546;49.882;8.666;2022-12-07T07:43:16;99913.50;;;4.93;100.00
12963;BME280;6546;49.882;8.666;2022-12-07T07:45:44;99923.00;;;4.97;100.00
12963;BME280;6546;49.882;8.666;2022-12-07T07:48:11;99917.16;;;5.05;100.00
12963;BME280;6546;49.882;8.666;2022-12-07T07:50:38;99917.16;;;5.05;100.00
12963;BME280;6546;49.882;8.666;2022-12-07T07:53:05;99922.25;;;5.02;100.00
12963;BME280;6546;49.882;8.666;2022-12-07T07:55:33;99917.03;;;4.98;100.00
12963;BME280;6546;49.882;8.666;2022-12-07T07:58:00;99920.50;;;5.00;100.00
12963;BME280;6546;49.882;8.666;2022-12-07T08:00:29;99917.25;;;5.08;100.00
12963;BME280;6546;49.882;8.666;2022-12-07T08:02:56;99918.13;;;5.08;100.00
12963;BME280;6546;49.882;8.666;2022-12-07T08:05:24;99929.19;;;5.06;100.00
12963;BME280;6546;49.882;8.666;2022-12-07T08:07:51;99923.88;;;4.99;100.00
12963;BME280;6546;49.882;8.666;2022-12-07T08:10:18;99927.50;;;5.08;100.00
12963;BME280;6546;49.882;8.666;2022-12-07T08:12:45;99919.72;;;5.03;100.00
12963;BME280;6546;49.882;8.666;2022-12-07T08:15:30;99924.97;;;5.09;100.00
12963;BME280;6546;49.882;8.666;2022-12-07T08:17:59;99922.47;;;5.11;100.00
12963;BME280;6546;49.882;8.666;2022-12-07T08:20:26;99932.78;;;5.14;100.00
12963;BME280;6546;49.882;8.666;2022-12-07T08:22:53;99935.41;;;5.15;100.00
12963;BME280;6546;49.882;8.666;2022-12-07T08:25:20;99932.88;;;5.17;100.00
12963;BME280;6546;49.882;8.666;2022-12-07T08:27:47;99931.22;;;5.19;100.00
12963;BME280;6546;49.882;8.666;2022-12-07T08:30:14;99933.72;;;5.17;100.00
12963;BME280;6546;49.882;8.666;2022-12-07T08:32:45;99932.03;;;5.18;100.00
12963;BME280;6546;49.882;8.666;2022-12-07T08:35:13;99927.97;;;5.26;100.00
12963;BME280;6546;49.882;8.666;2022-12-07T08:37:41;99934.09;;;5.31;100.00
12963;BME280;6546;49.882;8.666;2022-12-07T08:40:09;99932.31;;;5.29;100.00
12963;BME280;6546;49.882;8.666;2022-12-07T08:42:40;99938.47;;;5.35;100.00
12963;BME280;6546;49.882;8.666;2022-12-07T08:45:09;99934.25;;;5.39;100.00
12963;BME280;6546;49.882;8.666;2022-12-07T08:47:40;99937.66;;;5.38;100.00
12963;BME280;6546;49.882;8.666;2022-12-07T08:50:10;99935.00;;;5.35;100.00
12963;BME280;6546;49.882;8.666;2022-12-07T08:52:39;99939.25;;;5.33;100.00
12963;BME280;6546;49.882;8.666;2022-12-07T08:55:09;99935.72;;;5.29;100.00
12963;BME280;6546;49.882;8.666;2022-12-07T08:57:36;99930.50;;;5.24;100.00
12963;BME280;6546;49.882;8.666;2022-12-07T09:00:05;99932.22;;;5.25;100.00
12963;BME280;6546;49.882;8.666;2022-12-07T09:02:34;99931.22;;;5.19;100.00
12963;BME280;6546;49.882;8.666;2022-12-07T09:05:01;99932.94;;;5.20;100.00
12963;BME280;6546;49.882;8.666;2022-12-07T09:07:30;99934.59;;;5.18;100.00
12963;BME280;6546;49.882;8.666;2022-12-07T09:09:59;99942.38;;;5.21;100.00
12963;BME280;6546;49.882;8.666;2022-12-07T09:12:26;99933.78;;;5.19;100.00
12963;BME280;6546;49.882;8.666;2022-12-07T09:14:53;99939.06;;;5.25;100.00
12963;BME280;6546;49.882;8.666;2022-12-07T09:17:20;99936.50;;;5.25;100.00
12963;BME280;6546;49.882;8.666;2022-12-07T09:19:46;99945.25;;;5.33;100.00
12963;BME280;6546;49.882;8.666;2022-12-07T09:22:14;99940.25;;;5.39;100.00
12963;BME280;6546;49.882;8.666;2022-12-07T09:24:42;99939.66;;;5.51;100.00
12963;BME280;6546;49.882;8.666;2022-12-07T09:27:10;99938.81;;;5.50;100.00
12963;BME280;6546;49.882;8.666;2022-12-07T09:29:38;99946.56;;;5.52;100.00
12963;BME280;6546;49.882;8.666;2022-12-07T09:32:05;99948.47;;;5.61;100.00
12963;BME280;6546;49.882;8.666;2022-12-07T09:34:34;99939.94;;;5.62;100.00
12963;BME280;6546;49.882;8.666;2022-12-07T09:37:01;99937.69;;;5.77;100.00
12963;BME280;6546;49.882;8.666;2022-12-07T09:39:29;99938.63;;;5.81;100.00
12963;BME280;6546;49.882;8.666;2022-12-07T09:41:58;99943.94;;;5.87;100.00
12963;BME280;6546;49.882;8.666;2022-12-07T09:44:26;99932.84;;;5.89;100.00
12963;BME280;6546;49.882;8.666;2022-12-07T09:46:54;99932.94;;;5.92;100.00
12963;BME280;6546;49.882;8.666;2022-12-07T09:49:23;99931.31;;;5.96;100.00
12963;BME280;6546;49.882;8.666;2022-12-07T09:52:01;99933.13;;;6.02;100.00
12963;BME280;6546;49.882;8.666;2022-12-07T09:54:29;99934.84;;;6.01;100.00
12963;BME280;6546;49.882;8.666;2022-12-07T09:56:59;99927.91;;;5.97;100.00
12963;BME280;6546;49.882;8.666;2022-12-07T09:59:27;99935.50;;;5.92;100.00
12963;BME280;6546;49.882;8.666;2022-12-07T10:01:54;99933.91;;;5.97;100.00
12963;BME280;6546;49.882;8.666;2022-12-07T10:04:23;99930.38;;;5.92;100.00
12963;BME280;6546;49.882;8.666;2022-12-07T10:06:51;99930.25;;;5.89;100.00
12963;BME280;6546;49.882;8.666;2022-12-07T10:09:20;99928.28;;;5.76;100.00
12963;BME280;6546;49.882;8.666;2022-12-07T10:12:04;99927.44;;;5.77;100.00
12963;BME280;6546;49.882;8.666;2022-12-07T10:14:33;99921.53;;;5.81;100.00
12963;BME280;6546;49.882;8.666;2022-12-07T10:17:01;99924.91;;;5.79;100.00
12963;BME280;6546;49.882;8.666;2022-12-07T10:19:29;99918.97;;;5.81;100.00
12963;BME280;6546;49.882;8.666;2022-12-07T10:22:09;99912.16;;;5.82;100.00
12963;BME280;6546;49.882;8.666;2022-12-07T10:24:36;99914.56;;;5.74;100.00
12963;BME280;6546;49.882;8.666;2022-12-07T10:27:20;99912.75;;;5.70;100.00
12963;BME280;6546;49.882;8.666;2022-12-07T10:29:50;99911.06;;;5.72;100.00
12963;BME280;6546;49.882;8.666;2022-12-07T10:32:29;99912.88;;;5.76;100.00
12963;BME280;6546;49.882;8.666;2022-12-07T10:35:19;99904.88;;;5.64;100.00
12963;BME280;6546;49.882;8.666;2022-12-07T10:37:46;99899.06;;;5.69;100.00
12963;BME280;6546;49.882;8.666;2022-12-07T10:40:26;99909.13;;;5.62;100.00
12963;BME280;6546;49.882;8.666;2022-12-07T10:43:04;99900.69;;;5.66;100.00
12963;BME280;6546;49.882;8.666;2022-12-07T10:45:32;99902.50;;;5.71;100.00
12963;BME280;6546;49.882;8.666;2022-12-07T10:48:04;99903.72;;;5.87;100.00
12963;BME280;6546;49.882;8.666;2022-12-07T10:50:47;99892.97;;;6.05;100.00
12963;BME280;6546;49.882;8.666;2022-12-07T10:56:25;99892.31;;;6.14;100.00
12963;BME280;6546;49.882;8.666;2022-12-07T10:59:08;99888.19;;;6.22;100.00
12963;BME280;6546;49.882;8.666;2022-12-07T11:01:48;99884.94;;;6.31;100.00
12963;BME280;6546;49.882;8.666;2022-12-07T11:04:29;99875.50;;;6.31;100.00
12963;BME280;6546;49.882;8.666;2022-12-07T11:07:03;99879.09;;;6.39;100.00
12963;BME280;6546;49.882;8.666;2022-12-07T11:09:50;99877.44;;;6.41;100.00
12963;BME280;6546;49.882;8.666;2022-12-07T11:12:27;99862.28;;;6.55;100.00
12963;BME280;6546;49.882;8.666;2022-12-07T11:15:07;99859.75;;;6.58;100.00
12963;BME280;6546;49.882;8.666;2022-12-07T11:17:45;99861.50;;;6.59;100.00
12963;BME280;6546;49.882;8.666;2022-12-07T11:20:29;99853.78;;;6.61;100.00
12963;BME280;6546;49.882;8.666;2022-12-07T11:23:03;99848.63;;;6.59;100.00
12963;BME280;6546;49.882;8.666;2022-12-07T11:25:38;99863.97;;;6.55;100.00
12963;BME280;6546;49.882;8.666;2022-12-07T11:28:21;99859.69;;;6.54;100.00
12963;BME280;6546;49.882;8.666;2022-12-07T11:30:57;99854.41;;;6.47;100.00
12963;BME280;6546;49.882;8.666;2022-12-07T11:33:35;99851.84;;;6.47;100.00
12963;BME280;6546;49.882;8.666;2022-12-07T11:36:17;99862.06;;;6.44;100.00
12963;BME280;6546;49.882;8.666;2022-12-07T11:38:57;99847.25;;;6.31;100.00
12963;BME280;6546;49.882;8.666;2022-12-07T11:41:28;99851.69;;;6.38;100.00
12963;BME280;6546;49.882;8.666;2022-12-07T11:43:59;99847.50;;;6.43;100.00
12963;BME280;6546;49.882;8.666;2022-12-07T11:46:40;99851.84;;;6.47;100.00
12963;BME280;6546;49.882;8.666;2022-12-07T11:49:14;99841.56;;;6.47;100.00
12963;BME280;6546;49.882;8.666;2022-12-07T11:51:44;99839.84;;;6.46;100.00
12963;BME280;6546;49.882;8.666;2022-12-07T11:54:16;99842.50;;;6.51;100.00
12963;BME280;6546;49.882;8.666;2022-12-07T11:56:47;99838.34;;;6.58;100.00
12963;BME280;6546;49.882;8.666;2022-12-07T11:59:19;99833.19;;;6.58;100.00
12963;BME280;6546;49.882;8.666;2022-12-07T12:01:56;99824.53;;;6.53;100.00
12963;BME280;6546;49.882;8.666;2022-12-07T12:04:29;99821.22;;;6.60;100.00
12963;BME280;6546;49.882;8.666;2022-12-07T12:06:57;99831.41;;;6.54;100.00
12963;BME280;6546;49.882;8.666;2022-12-07T12:09:29;99817.72;;;6.55;100.00
12963;BME280;6546;49.882;8.666;2022-12-07T12:12:12;99820.38;;;6.59;100.00
12963;BME280;6546;49.882;8.666;2022-12-07T12:14:51;99817.66;;;6.52;100.00
12963;BME280;6546;49.882;8.666;2022-12-07T12:17:34;99819.22;;;6.43;100.00
12963;BME280;6546;49.882;8.666;2022-12-07T12:20:13;99817.50;;;6.42;100.00
12963;BME280;6546;49.882;8.666;2022-12-07T12:22:45;99808.09;;;6.44;100.00
12963;BME280;6546;49.882;8.666;2022-12-07T12:25:21;99810.94;;;6.60;100.00
12963;BME280;6546;49.882;8.666;2022-12-07T12:27:50;99811.03;;;6.64;100.00
12963;BME280;6546;49.882;8.666;2022-12-07T12:30:34;99794.81;;;6.68;100.00
12963;BME280;6546;49.882;8.666;2022-12-07T12:33:06;99796.59;;;6.74;100.00
12963;BME280;6546;49.882;8.666;2022-12-07T12:35:40;99789.66;;;6.67;100.00
12963;BME280;6546;49.882;8.666;2022-12-07T12:38:25;99792.22;;;6.67;100.00
12963;BME280;6546;49.882;8.666;2022-12-07T12:40:54;99791.38;;;6.69;100.00
12963;BME280;6546;49.882;8.666;2022-12-07T12:43:43;99796.44;;;6.63;100.00
12963;BME280;6546;49.882;8.666;2022-12-07T12:46:46;99786.97;;;6.61;100.00
12963;BME280;6546;49.882;8.666;2022-12-07T12:49:32;99784.31;;;6.56;100.00
12963;BME280;6546;49.882;8.666;2022-12-07T12:52:01;99789.53;;;6.61;100.00
12963;BME280;6546;49.882;8.666;2022-12-07T12:54:59;99783.38;;;6.51;100.00
12963;BME280;6546;49.882;8.666;2022-12-07T12:57:29;99773.09;;;6.51;100.00
12963;BME280;6546;49.882;8.666;2022-12-07T12:59:57;99776.38;;;6.42;100.00
12963;BME280;6546;49.882;8.666;2022-12-07T13:02:26;99766.19;;;6.48;100.00
12963;BME280;6546;49.882;8.666;2022-12-07T13:04:57;99773.94;;;6.50;100.00
12963;BME280;6546;49.882;8.666;2022-12-07T13:07:51;99769.69;;;6.50;100.00
12963;BME280;6546;49.882;8.666;2022-12-07T13:10:37;99763.81;;;6.58;100.00
12963;BME280;6546;49.882;8.666;2022-12-07T13:13:29;99762.16;;;6.63;100.00
12963;BME280;6546;49.882;8.666;2022-12-07T13:18:57;99763.16;;;6.71;100.00
12963;BME280;6546;49.882;8.666;2022-12-07T13:21:44;99763.09;;;6.68;100.00
12963;BME280;6546;49.882;8.666;2022-12-07T13:24:12;99764.94;;;6.75;100.00
12963;BME280;6546;49.882;8.666;2022-12-07T13:26:42;99759.69;;;6.69;100.00
12963;BME280;6546;49.882;8.666;2022-12-07T13:29:12;99767.97;;;6.49;100.00
12963;BME280;6546;49.882;8.666;2022-12-07T13:31:42;99761.75;;;6.37;100.00
12963;BME280;6546;49.882;8.666;2022-12-07T13:34:31;99760.88;;;6.36;100.00
12963;BME280;6546;49.882;8.666;2022-12-07T13:37:01;99759.25;;;6.41;100.00